Time;durP1;ratioP1;P1;durP2;ratioP2;P2;SDS_P1;SDS_P2;PMS_P1;PMS_P2;Temp;Humidity;BMP_temperature;BMP_pressure;BME280_temperature;BME280_humidity;BME280_pressure;Samples;Min_cycle;Max_cycle;Signal;HPM_P1;HPM_P2
2023/07/26 00:02:09;;;;;;;3.05;1.70;;;;;;;-148.88;100.00;-17125.47;5036991;28;20017;-84
2023/07/26 00:04:43;;;;;;;3.63;2.00;;;;;;;-148.88;100.00;-17125.47;5038768;28;20013;-85
2023/07/26 00:07:16;;;;;;;3.08;1.75;;;;;;;-148.88;100.00;-17125.47;5038423;28;20064;-84
2023/07/26 00:09:42;;;;;;;5.75;1.95;;;;;;;-148.88;100.00;-17125.47;5037573;28;20026;-85
2023/07/26 00:12:13;;;;;;;4.18;1.63;;;;;;;-148.88;100.00;-17125.47;5039292;28;20039;-85
2023/07/26 00:14:56;;;;;;;6.07;2.30;;;;;;;-148.88;100.00;-17125.47;5038199;28;20029;-84
2023/07/26 00:17:21;;;;;;;3.90;1.92;;;;;;;-148.88;100.00;-17125.47;5039065;28;20022;-84
2023/07/26 00:19:47;;;;;;;2.90;1.98;;;;;;;-148.88;100.00;-17125.47;5040743;28;20028;-83
2023/07/26 00:22:18;;;;;;;4.65;2.03;;;;;;;-148.88;100.00;-17125.47;5051941;28;20029;-83
2023/07/26 00:24:43;;;;;;;5.50;2.22;;;;;;;-148.88;100.00;-17125.47;5051993;28;20022;-84
2023/07/26 00:27:14;;;;;;;4.95;2.20;;;;;;;-148.88;100.00;-17125.47;5044916;28;20036;-85
2023/07/26 00:29:49;;;;;;;3.50;1.85;;;;;;;-148.88;100.00;-17125.47;5041325;28;20032;-85
2023/07/26 00:32:24;;;;;;;5.82;2.78;;;;;;;-148.88;100.00;-17125.47;5041296;28;20029;-85
2023/07/26 00:35:08;;;;;;;4.55;2.45;;;;;;;-148.88;100.00;-17125.47;5040278;28;20036;-84
2023/07/26 00:37:39;;;;;;;3.35;2.28;;;;;;;-148.88;100.00;-17125.47;5035959;28;20025;-84
2023/07/26 00:40:14;;;;;;;4.43;1.98;;;;;;;-148.88;100.00;-17125.47;5036273;28;20032;-85
2023/07/26 00:42:58;;;;;;;5.28;2.30;;;;;;;-148.88;100.00;-17125.47;5038409;28;20056;-85
2023/07/26 00:45:27;;;;;;;4.45;2.13;;;;;;;-148.88;100.00;-17125.47;5038009;28;20031;-84
2023/07/26 00:47:53;;;;;;;3.15;2.05;;;;;;;-148.88;100.00;-17125.47;5037393;28;20537;-84
2023/07/26 00:50:35;;;;;;;5.03;2.50;;;;;;;-148.88;100.00;-17125.47;5037002;28;20029;-84
2023/07/26 00:53:25;;;;;;;4.35;2.40;;;;;;;-148.88;100.00;-17125.47;5037461;28;20063;-84
2023/07/26 00:56:09;;;;;;;;;;;;;;;;;;;;;
2023/07/26 00:58:41;;;;;;;5.22;2.53;;;;;;;-148.88;100.00;-17125.47;5038667;28;20085;-84
2023/07/26 01:01:15;;;;;;;4.30;2.83;;;;;;;-148.88;100.00;-17125.47;5038873;28;20029;-84
2023/07/26 01:03:43;;;;;;;4.97;2.60;;;;;;;-148.88;100.00;-17125.47;5038618;28;20025;-84
2023/07/26 01:06:20;;;;;;;7.63;2.90;;;;;;;-148.88;100.00;-17125.47;5037087;28;20419;-84
2023/07/26 01:09:08;;;;;;;4.60;2.95;;;;;;;-148.88;100.00;-17125.47;5038482;28;20025;-84
2023/07/26 01:11:48;;;;;;;4.07;2.50;;;;;;;-148.88;100.00;-17125.47;5038311;28;20523;-84
2023/07/26 01:14:35;;;;;;;4.78;2.65;;;;;;;-148.88;100.00;-17125.47;5034862;28;20044;-83
2023/07/26 01:17:14;;;;;;;4.43;2.10;;;;;;;-148.88;100.00;-17125.47;5036554;28;20037;-84
2023/07/26 01:19:42;;;;;;;4.65;2.60;;;;;;;-148.88;100.00;-17125.47;5036253;28;20109;-83
2023/07/26 01:22:10;;;;;;;5.05;2.60;;;;;;;-148.88;100.00;-17125.47;5037930;28;20356;-84
2023/07/26 01:24:48;;;;;;;5.30;2.45;;;;;;;-148.88;100.00;-17125.47;5035916;28;20029;-84
2023/07/26 01:27:25;;;;;;;4.70;2.42;;;;;;;-148.88;100.00;-17125.47;5036279;28;20025;-85
2023/07/26 01:29:56;;;;;;;8.27;2.95;;;;;;;-148.88;100.00;-17125.47;5036000;28;20116;-83
2023/07/26 01:32:47;;;;;;;4.63;2.67;;;;;;;-148.88;100.00;-17125.47;5036756;28;20021;-84
2023/07/26 01:35:19;;;;;;;6.05;2.50;;;;;;;-148.88;100.00;-17125.47;5026186;28;20124;-84
2023/07/26 01:37:45;;;;;;;7.47;2.65;;;;;;;-148.88;100.00;-17125.47;5035777;28;20029;-84
2023/07/26 01:40:19;;;;;;;4.35;2.50;;;;;;;-148.88;100.00;-17125.47;5035989;28;20025;-84
2023/07/26 01:43:01;;;;;;;5.05;2.97;;;;;;;-148.88;100.00;-17125.47;5035534;28;20078;-85
2023/07/26 01:45:55;;;;;;;7.07;2.97;;;;;;;-148.88;100.00;-17125.47;5036485;28;20045;-84
2023/07/26 01:48:38;;;;;;;;;;;;;;;;;;;;;
2023/07/26 01:51:15;;;;;;;4.00;2.58;;;;;;;-148.88;100.00;-17125.47;5036502;28;20124;-84
2023/07/26 01:53:50;;;;;;;5.55;2.88;;;;;;;-148.88;100.00;-17125.47;5037271;28;20446;-84
2023/07/26 01:56:27;;;;;;;5.65;2.90;;;;;;;-148.88;100.00;-17125.47;5038033;28;20029;-85
2023/07/26 01:59:12;;;;;;;5.68;3.08;;;;;;;-148.88;100.00;-17125.47;5037230;28;20033;-85
2023/07/26 02:01:45;;;;;;;6.00;3.05;;;;;;;-148.88;100.00;-17125.47;5036537;28;20456;-84
2023/07/26 02:04:10;;;;;;;7.18;3.03;;;;;;;-148.88;100.00;-17125.47;5035347;28;20022;-84
2023/07/26 02:07:00;;;;;;;6.10;3.22;;;;;;;-148.88;100.00;-17125.47;5039146;28;20056;-84
2023/07/26 02:09:27;;;;;;;5.68;3.13;;;;;;;-148.88;100.00;-17125.47;5039604;28;20060;-84
2023/07/26 02:11:53;;;;;;;5.85;3.08;;;;;;;-148.88;100.00;-17125.47;5037968;28;20032;-84
2023/07/26 02:14:19;;;;;;;5.35;3.40;;;;;;;-148.88;100.00;-17125.47;5038473;28;20116;-84
2023/07/26 02:16:44;;;;;;;6.55;3.75;;;;;;;-148.88;100.00;-17125.47;5038165;28;20025;-85
2023/07/26 02:19:10;;;;;;;6.55;4.05;;;;;;;-148.88;100.00;-17125.47;5039724;28;20476;-84
2023/07/26 02:21:35;;;;;;;6.75;3.75;;;;;;;-148.88;100.00;-17125.47;5038661;28;20171;-84
2023/07/26 02:24:01;;;;;;;7.45;4.28;;;;;;;-148.88;100.00;-17125.47;5039766;28;20017;-84
2023/07/26 02:26:26;;;;;;;6.28;3.95;;;;;;;-148.88;100.00;-17125.47;5038141;28;20024;-85
2023/07/26 02:28:51;;;;;;;5.47;4.00;;;;;;;-148.88;100.00;-17125.47;5037847;28;20487;-84
2023/07/26 02:31:25;;;;;;;6.38;4.30;;;;;;;-148.88;100.00;-17125.47;5039079;28;20029;-85
2023/07/26 02:33:53;;;;;;;;;;;;;;;-148.88;100.00;-17125.47;5038903;28;20025;-85
2023/07/26 02:36:18;;;;;;;6.25;4.22;;;;;;;-148.88;100.00;-17125.47;5038504;28;19959;-84
2023/07/26 02:38:44;;;;;;;8.10;4.85;;;;;;;-148.88;100.00;-17125.47;5038813;28;20026;-84
2023/07/26 02:41:14;;;;;;;5.18;4.50;;;;;;;-148.88;100.00;-17125.47;5037869;28;20052;-83
2023/07/26 02:43:40;;;;;;;5.68;4.40;;;;;;;-148.88;100.00;-17125.47;5039093;28;20500;-84
2023/07/26 02:46:11;;;;;;;7.80;4.65;;;;;;;-148.88;100.00;-17125.47;5038579;28;20026;-85
2023/07/26 02:48:45;;;;;;;7.35;5.03;;;;;;;-148.88;100.00;-17125.47;5038598;28;20041;-83
2023/07/26 02:51:23;;;;;;;5.78;4.72;;;;;;;-148.88;100.00;-17125.47;5038396;28;20025;-84
2023/07/26 02:53:55;;;;;;;7.45;4.43;;;;;;;-148.88;100.00;-17125.47;5037057;28;20115;-83
2023/07/26 02:56:25;;;;;;;9.07;4.50;;;;;;;-148.88;100.00;-17125.47;5036641;28;20117;-84
2023/07/26 02:58:51;;;;;;;5.75;4.22;;;;;;;-148.88;100.00;-17125.47;5036894;28;20447;-84
2023/07/26 03:01:30;;;;;;;8.10;4.72;;;;;;;-148.88;100.00;-17125.47;5036467;28;20502;-84
2023/07/26 03:04:04;;;;;;;6.57;4.88;;;;;;;-148.88;100.00;-17125.47;5037889;28;20029;-85
2023/07/26 03:06:34;;;;;;;7.43;4.93;;;;;;;-148.88;100.00;-17125.47;5035743;28;20072;-84
2023/07/26 03:09:09;;;;;;;7.82;5.43;;;;;;;-148.88;100.00;-17125.47;5036545;28;20060;-83
2023/07/26 03:11:36;;;;;;;7.65;5.30;;;;;;;-148.88;100.00;-17125.47;5037968;28;20476;-84
2023/07/26 03:14:06;;;;;;;7.07;5.50;;;;;;;-148.88;100.00;-17125.47;5036773;28;20021;-84
2023/07/26 03:16:41;;;;;;;7.50;5.22;;;;;;;-148.88;100.00;-17125.47;5035959;28;20105;-84
2023/07/26 03:19:27;;;;;;;7.78;5.07;;;;;;;-148.88;100.00;-17125.47;5037163;28;20125;-83
2023/07/26 03:22:11;;;;;;;6.20;5.03;;;;;;;-148.88;100.00;-17125.47;5037390;28;20094;-84
2023/07/26 03:24:39;;;;;;;5.10;4.60;;;;;;;-148.88;100.00;-17125.47;5039055;28;20079;-84
2023/07/26 03:27:21;;;;;;;8.23;5.15;;;;;;;-148.88;100.00;-17125.47;5037392;28;20029;-84
2023/07/26 03:30:04;;;;;;;6.50;5.28;;;;;;;-148.88;100.00;-17125.47;5036954;28;20038;-84
2023/07/26 03:32:30;;;;;;;7.95;5.20;;;;;;;-148.88;100.00;-17125.47;5038277;28;20025;-84
2023/07/26 03:34:55;;;;;;;8.60;4.78;;;;;;;-148.88;100.00;-17125.47;5038002;28;20033;-84
2023/07/26 03:37:20;;;;;;;8.75;5.57;;;;;;;-148.88;100.00;-17125.47;5038487;28;20037;-84
2023/07/26 03:39:46;;;;;;;5.97;5.28;;;;;;;-148.88;100.00;-17125.47;5038117;28;20395;-84
2023/07/26 03:42:11;;;;;;;7.63;5.32;;;;;;;-148.88;100.00;-17125.47;5037473;28;20492;-84
2023/07/26 03:44:36;;;;;;;7.13;5.53;;;;;;;-148.88;100.00;-17125.47;5054407;28;20018;-84
2023/07/26 03:47:02;;;;;;;6.85;5.55;;;;;;;-148.88;100.00;-17125.47;5055725;28;20028;-82
2023/07/26 03:49:27;;;;;;;7.05;5.15;;;;;;;-148.88;100.00;-17125.47;5047102;28;20040;-86
2023/07/26 03:51:53;;;;;;;7.63;4.63;;;;;;;-148.88;100.00;-17125.47;5040994;28;20029;-85
2023/07/26 03:54:18;;;;;;;6.47;4.65;;;;;;;-148.88;100.00;-17125.47;5041583;28;20025;-85
2023/07/26 03:56:43;;;;;;;6.60;4.63;;;;;;;-148.88;100.00;-17125.47;5038811;28;20480;-85
2023/07/26 03:59:09;;;;;;;5.85;4.40;;;;;;;-148.88;100.00;-17125.47;5037944;28;20108;-83
2023/07/26 04:01:34;;;;;;;8.23;4.55;;;;;;;-148.88;100.00;-17125.47;5036291;28;20480;-85
2023/07/26 04:04:00;;;;;;;5.78;4.78;;;;;;;-148.88;100.00;-17125.47;5036984;28;20017;-84
2023/07/26 04:06:25;;;;;;;7.25;4.63;;;;;;;-148.88;100.00;-17125.47;5036459;28;20048;-84
2023/07/26 04:08:50;;;;;;;8.23;4.78;;;;;;;-148.88;100.00;-17125.47;5037513;28;20454;-84
2023/07/26 04:11:19;;;;;;;7.47;5.40;;;;;;;-148.88;100.00;-17125.47;5037814;28;20032;-84
2023/07/26 04:13:44;;;;;;;8.07;5.03;;;;;;;-148.88;100.00;-17125.47;5036743;28;20052;-84
2023/07/26 04:16:18;;;;;;;6.10;4.95;;;;;;;-148.88;100.00;-17125.47;5036692;28;20064;-85
2023/07/26 04:18:44;;;;;;;6.88;5.65;;;;;;;-148.88;100.00;-17125.47;5035535;28;20124;-85
2023/07/26 04:21:14;;;;;;;8.38;5.00;;;;;;;-148.88;100.00;-17125.47;5035960;28;20057;-84
2023/07/26 04:23:40;;;;;;;5.78;4.95;;;;;;;-148.88;100.00;-17125.47;5035226;28;20488;-84
2023/07/26 04:26:06;;;;;;;6.47;4.93;;;;;;;-148.88;100.00;-17125.47;5034762;28;20026;-84
2023/07/26 04:28:31;;;;;;;7.38;5.20;;;;;;;-148.88;100.00;-17125.47;5036510;28;20026;-84
2023/07/26 04:30:56;;;;;;;7.68;5.43;;;;;;;-148.88;100.00;-17125.47;5035447;28;20055;-84
2023/07/26 04:33:22;;;;;;;6.03;5.05;;;;;;;-148.88;100.00;-17125.47;5035327;28;20025;-84
2023/07/26 04:35:48;;;;;;;5.60;4.90;;;;;;;-148.88;100.00;-17125.47;5036023;28;20464;-84
2023/07/26 04:38:13;;;;;;;6.28;4.60;;;;;;;-148.88;100.00;-17125.47;5034915;28;20025;-85
2023/07/26 04:40:38;;;;;;;6.70;5.28;;;;;;;-148.88;100.00;-17125.47;5035438;28;20488;-84
2023/07/26 04:43:04;;;;;;;7.13;4.90;;;;;;;-148.88;100.00;-17125.47;5036300;28;20025;-84
2023/07/26 04:45:31;;;;;;;5.20;4.70;;;;;;;-148.88;100.00;-17125.47;5036218;28;20025;-84
2023/07/26 04:48:15;;;;;;;7.10;4.90;;;;;;;-148.88;100.00;-17125.47;5035423;28;20068;-83
2023/07/26 04:50:42;;;;;;;6.88;4.82;;;;;;;-148.88;100.00;-17125.47;5034544;28;20083;-84
2023/07/26 04:53:10;;;;;;;7.65;5.00;;;;;;;-148.88;100.00;-17125.47;5034381;28;20026;-83
2023/07/26 04:56:01;;;;;;;;;;;;;;;;;;;;;
2023/07/26 04:58:40;;;;;;;8.07;5.15;;;;;;;-148.88;100.00;-17125.47;5035737;28;20028;-84
2023/07/26 05:01:06;;;;;;;7.50;5.03;;;;;;;-148.88;100.00;-17125.47;5036217;28;20523;-83
2023/07/26 05:03:31;;;;;;;8.45;5.82;;;;;;;-148.88;100.00;-17125.47;5035752;28;20033;-83
2023/07/26 05:05:58;;;;;;;8.25;5.78;;;;;;;-148.88;100.00;-17125.47;5036126;28;20392;-83
2023/07/26 05:08:23;;;;;;;10.65;6.03;;;;;;;-148.88;100.00;-17125.47;5034386;28;20021;-84
2023/07/26 05:10:50;;;;;;;8.98;5.72;;;;;;;-148.88;100.00;-17125.47;5034590;28;20403;-83
2023/07/26 05:13:15;;;;;;;8.80;5.65;;;;;;;-148.88;100.00;-17125.47;5034304;28;20506;-83
2023/07/26 05:15:43;;;;;;;14.68;6.13;;;;;;;-148.88;100.00;-17125.47;5035719;28;20029;-82
2023/07/26 05:18:09;;;;;;;6.72;5.72;;;;;;;-148.88;100.00;-17125.47;5034203;28;20021;-84
2023/07/26 05:20:34;;;;;;;7.35;5.50;;;;;;;-148.88;100.00;-17125.47;5034646;28;20120;-83
2023/07/26 05:22:59;;;;;;;8.05;5.82;;;;;;;-148.88;100.00;-17125.47;5035343;28;20029;-83
2023/07/26 05:25:25;;;;;;;7.53;5.22;;;;;;;-148.88;100.00;-17125.47;5036391;28;20077;-83
2023/07/26 05:27:50;;;;;;;8.13;5.93;;;;;;;-148.88;100.00;-17125.47;5035264;28;20026;-83
2023/07/26 05:30:19;;;;;;;8.73;6.43;;;;;;;-148.88;100.00;-17125.47;5033526;28;20411;-83
2023/07/26 05:32:45;;;;;;;7.60;6.00;;;;;;;-148.88;100.00;-17125.47;5033151;28;20393;-83
2023/07/26 05:35:12;;;;;;;7.88;6.45;;;;;;;-148.88;100.00;-17125.47;5033720;28;20024;-84
2023/07/26 05:37:42;;;;;;;9.93;6.10;;;;;;;-148.88;100.00;-17125.47;5034770;28;20021;-82
2023/07/26 05:40:10;;;;;;;9.45;5.90;;;;;;;-148.88;100.00;-17125.47;5032462;28;20045;-81
2023/07/26 05:43:09;;;;;;;9.75;6.28;;;;;;;-148.88;100.00;-17125.47;5034359;28;20037;-82
2023/07/26 05:45:28;;;;;;;7.43;5.80;;;;;;;-148.88;100.00;-17125.47;5031440;28;20026;-81
2023/07/26 05:47:56;;;;;;;7.72;6.15;;;;;;;-148.88;100.00;-17125.47;5032391;28;20040;-82
2023/07/26 05:50:36;;;;;;;10.02;6.60;;;;;;;-148.88;100.00;-17125.47;5033121;28;20036;-81
2023/07/26 05:53:04;;;;;;;7.75;6.20;;;;;;;-148.88;100.00;-17125.47;5033940;28;20377;-82
2023/07/26 05:55:33;;;;;;;11.00;6.18;;;;;;;-148.88;100.00;-17125.47;5034108;28;20036;-82
2023/07/26 05:58:43;;;;;;;10.18;6.25;;;;;;;-148.88;100.00;-17125.47;5034180;28;20392;-81
2023/07/26 06:00:44;;;;;;;8.13;6.00;;;;;;;-148.88;100.00;-17125.47;5026714;28;20053;-81
2023/07/26 06:03:12;;;;;;;8.13;6.53;;;;;;;-148.88;100.00;-17125.47;5032730;28;20029;-81
2023/07/26 06:05:47;;;;;;;6.70;6.00;;;;;;;-148.88;100.00;-17125.47;5032538;28;20022;-81
2023/07/26 06:08:22;;;;;;;9.90;6.32;;;;;;;-148.88;100.00;-17125.47;5032977;28;20159;-81
2023/07/26 06:10:50;;;;;;;7.00;5.95;;;;;;;-148.88;100.00;-17125.47;5034073;28;20155;-83
2023/07/26 06:13:18;;;;;;;7.78;5.78;;;;;;;-148.88;100.00;-17125.47;5033140;28;20123;-81
2023/07/26 06:15:51;;;;;;;9.48;6.28;;;;;;;-148.88;100.00;-17125.47;5033035;28;20032;-82
2023/07/26 06:18:17;;;;;;;7.45;6.20;;;;;;;-148.88;100.00;-17125.47;5035551;28;20025;-83
2023/07/26 06:20:42;;;;;;;8.55;5.55;;;;;;;-148.88;100.00;-17125.47;5034471;28;20121;-83
2023/07/26 06:23:15;;;;;;;7.68;6.00;;;;;;;-148.88;100.00;-17125.47;5034687;28;20033;-84
2023/07/26 06:25:45;;;;;;;7.27;5.53;;;;;;;-148.88;100.00;-17125.47;5034864;28;20052;-81
2023/07/26 06:28:19;;;;;;;8.60;6.40;;;;;;;-148.88;100.00;-17125.47;5034130;28;20302;-83
2023/07/26 06:30:48;;;;;;;;;;;;;;;-148.88;100.00;-17125.47;5037320;28;20035;-84
2023/07/26 06:33:37;;;;;;;7.47;5.70;;;;;;;-148.88;100.00;-17125.47;5034841;28;19955;-84
2023/07/26 06:36:03;;;;;;;8.30;5.97;;;;;;;-148.88;100.00;-17125.47;5035430;28;20025;-85
2023/07/26 06:38:31;;;;;;;11.30;6.03;;;;;;;-148.88;100.00;-17125.47;5033250;28;20026;-87
2023/07/26 06:40:56;;;;;;;8.35;5.60;;;;;;;-148.88;100.00;-17125.47;5032019;28;20079;-85
2023/07/26 06:43:21;;;;;;;8.05;6.10;;;;;;;-148.88;100.00;-17125.47;5033636;28;20056;-85
2023/07/26 06:45:50;;;;;;;11.90;6.03;;;;;;;-148.88;100.00;-17125.47;5032727;28;20022;-86
2023/07/26 06:48:15;;;;;;;9.43;6.00;;;;;;;-148.88;100.00;-17125.47;5033596;28;20030;-85
2023/07/26 06:51:02;;;;;;;9.90;6.22;;;;;;;-148.88;100.00;-17125.47;5034397;28;20078;-84
2023/07/26 06:53:28;;;;;;;7.97;5.53;;;;;;;-148.88;100.00;-17125.47;5035455;28;20021;-86
2023/07/26 06:56:05;;;;;;;10.23;5.80;;;;;;;-148.88;100.00;-17125.47;5036002;28;20033;-86
2023/07/26 06:58:30;;;;;;;6.70;5.50;;;;;;;-148.88;100.00;-17125.47;5035658;28;20037;-86
2023/07/26 07:00:56;;;;;;;8.05;5.70;;;;;;;-148.88;100.00;-17125.47;5036983;28;20029;-86
2023/07/26 07:03:37;;;;;;;8.82;5.60;;;;;;;-148.88;100.00;-17125.47;5037002;28;20054;-84
2023/07/26 07:06:02;;;;;;;8.10;5.60;;;;;;;-148.88;100.00;-17125.47;5036132;28;20021;-85
2023/07/26 07:08:28;;;;;;;8.90;6.05;;;;;;;-148.88;100.00;-17125.47;5046279;28;20047;-86
2023/07/26 07:10:53;;;;;;;5.78;5.13;;;;;;;-148.88;100.00;-17125.47;5054292;28;20085;-86
2023/07/26 07:13:18;;;;;;;6.80;5.35;;;;;;;-148.88;100.00;-17125.47;5054663;28;20021;-86
2023/07/26 07:15:52;;;;;;;6.65;5.38;;;;;;;-148.88;100.00;-17125.47;5038601;28;20564;-86
2023/07/26 07:18:26;;;;;;;7.50;4.97;;;;;;;-148.88;100.00;-17125.47;5035068;28;20083;-87
2023/07/26 07:21:03;;;;;;;6.80;4.97;;;;;;;-148.88;100.00;-17125.47;5036521;28;20032;-86
2023/07/26 07:23:41;;;;;;;6.95;4.57;;;;;;;-148.88;100.00;-17125.47;5036006;28;20033;-86
2023/07/26 07:26:07;;;;;;;7.32;4.55;;;;;;;-148.88;100.00;-17125.47;5036860;28;20538;-86
2023/07/26 07:28:51;;;;;;;6.35;4.00;;;;;;;-148.88;100.00;-17125.47;5036222;28;20041;-88
2023/07/26 07:31:17;;;;;;;6.65;4.10;;;;;;;-148.88;99.67;-17125.47;5034771;28;20493;-86
2023/07/26 07:33:45;;;;;;;6.25;3.95;;;;;;;-148.88;99.96;-17125.47;5034810;28;20044;-85
2023/07/26 07:36:15;;;;;;;5.80;3.70;;;;;;;-148.88;97.63;-17125.47;5034968;28;20029;-83
2023/07/26 07:38:51;;;;;;;4.93;3.30;;;;;;;-148.88;98.17;-17125.47;5036106;28;20021;-85
2023/07/26 07:41:31;;;;;;;6.10;3.63;;;;;;;-148.88;96.49;-17125.47;5034510;28;20074;-85
2023/07/26 07:43:59;;;;;;;4.40;3.20;;;;;;;-148.88;96.03;-17125.47;5034419;28;20017;-86
2023/07/26 07:46:37;;;;;;;7.45;3.85;;;;;;;-148.88;96.96;-17125.47;5034932;28;20029;-86
2023/07/26 07:49:05;;;;;;;5.22;3.67;;;;;;;-148.88;96.32;-17125.47;5036159;28;20034;-84
2023/07/26 07:51:31;;;;;;;5.18;3.47;;;;;;;-148.88;96.81;-17125.47;5035779;28;20075;-83
2023/07/26 07:53:59;;;;;;;4.28;3.50;;;;;;;-148.88;95.10;-17125.47;5036725;28;20017;-82
2023/07/26 07:56:24;;;;;;;4.72;3.42;;;;;;;-148.88;95.91;-17125.47;5035827;28;20029;-85
2023/07/26 07:58:50;;;;;;;6.72;4.13;;;;;;;-148.88;97.13;-17125.47;5041661;28;20052;-84
2023/07/26 08:01:28;;;;;;;;;;;;;;;;;;;;;
2023/07/26 08:03:58;;;;;;;5.22;3.88;;;;;;;-148.88;97.34;-17125.47;5036086;28;20021;-84
2023/07/26 08:06:29;;;;;;;4.75;3.42;;;;;;;-148.88;93.58;-17125.47;5035999;28;20018;-84
2023/07/26 08:09:05;;;;;;;4.93;3.40;;;;;;;-148.88;92.85;-17125.47;5035452;28;20037;-88
2023/07/26 08:11:33;;;;;;;6.85;3.80;;;;;;;-148.88;94.25;-17125.47;5036022;28;20056;-86
2023/07/26 08:14:04;;;;;;;4.35;2.88;;;;;;;-148.88;89.85;-17125.47;5034710;28;20021;-86
2023/07/26 08:16:29;;;;;;;3.67;2.90;;;;;;;-148.88;89.14;-17125.47;5035783;28;20480;-86
2023/07/26 08:18:54;;;;;;;4.03;3.00;;;;;;;-148.88;88.91;-17125.47;5034786;28;20056;-86
2023/07/26 08:21:21;;;;;;;5.13;3.10;;;;;;;-148.88;90.48;-17125.47;5038712;28;20060;-85
2023/07/26 08:23:49;;;;;;;4.60;3.10;;;;;;;-148.88;89.73;-17125.47;5035758;28;20033;-84
2023/07/26 08:26:14;;;;;;;7.00;2.90;;;;;;;-148.88;88.44;-17125.47;5033888;28;20018;-83
2023/07/26 08:28:47;;;;;;;4.38;2.47;;;;;;;-148.88;84.17;-17125.47;5035105;28;20103;-84
2023/07/26 08:31:21;;;;;;;4.35;2.47;;;;;;;-148.88;82.89;-17125.47;5034014;28;20518;-84
2023/07/26 08:40:12;;;;;;;5.53;2.40;;;;;;;-148.88;83.03;-17125.47;5043043;22;20056;-74
2023/07/26 08:42:37;;;;;;;4.82;2.20;;;;;;;-148.88;84.85;-17125.47;5033007;28;20021;-73
2023/07/26 08:45:06;;;;;;;4.80;2.35;;;;;;;-148.88;84.57;-17125.47;5034107;28;20024;-74
2023/07/26 08:47:32;;;;;;;5.57;2.30;;;;;;;-148.88;81.51;-17125.47;5033636;28;20487;-74
2023/07/26 08:49:58;;;;;;;4.18;2.00;;;;;;;-148.88;75.85;-17125.47;5033728;28;20113;-73
2023/07/26 08:52:24;;;;;;;4.82;2.22;;;;;;;-148.88;76.27;-17125.47;5033626;28;20080;-74
2023/07/26 08:54:50;;;;;;;3.70;1.90;;;;;;;-148.88;76.29;-17125.47;5033553;28;20032;-74
2023/07/26 08:57:16;;;;;;;3.35;2.10;;;;;;;-148.88;77.47;-17125.47;5032215;28;20120;-74
2023/07/26 08:59:42;;;;;;;4.13;1.80;;;;;;;-148.88;78.92;-17125.47;5033673;28;20032;-73
2023/07/26 09:02:09;;;;;;;4.45;1.77;;;;;;;-148.88;72.32;-17125.47;5033761;28;20052;-74
2023/07/26 09:04:35;;;;;;;3.33;1.60;;;;;;;-148.88;69.85;-17125.47;5032123;28;20021;-73
2023/07/26 09:07:02;;;;;;;4.43;1.60;;;;;;;-148.88;72.73;-17125.47;5033331;28;20032;-73
2023/07/26 09:09:28;;;;;;;2.95;1.67;;;;;;;-148.88;69.71;-17125.47;5033382;28;20431;-73
2023/07/26 09:11:53;;;;;;;3.15;1.60;;;;;;;-148.88;68.74;-17125.47;5033370;28;20480;-74
2023/07/26 09:14:26;;;;;;;3.65;1.58;;;;;;;-148.88;68.16;-17125.47;5032494;28;20025;-73
2023/07/26 09:16:54;;;;;;;3.67;1.77;;;;;;;-148.88;68.75;-17125.47;5039556;28;20029;-75
2023/07/26 09:19:26;;;;;;;4.88;1.55;;;;;;;-148.88;69.62;-17125.47;5033554;28;20263;-74
2023/07/26 09:21:56;;;;;;;3.35;2.00;;;;;;;-148.88;67.24;-17125.47;5033367;28;20025;-74
2023/07/26 09:24:33;;;;;;;4.18;1.85;;;;;;;-148.88;65.79;-17125.47;5033470;28;20507;-73
2023/07/26 09:27:06;;;;;;;3.30;1.60;;;;;;;-148.88;66.71;-17125.47;5033928;28;20095;-74
2023/07/26 09:29:31;;;;;;;2.63;1.67;;;;;;;-148.88;68.56;-17125.47;5033184;28;20534;-74
2023/07/26 09:31:57;;;;;;;5.38;1.88;;;;;;;-148.88;65.23;-17125.47;5033052;28;20029;-74
2023/07/26 09:34:22;;;;;;;3.20;1.67;;;;;;;-148.88;64.53;-17125.47;5033243;28;20476;-74
2023/07/26 09:36:49;;;;;;;2.30;1.58;;;;;;;-148.88;64.25;-17125.47;5032985;28;20550;-74
2023/07/26 09:39:17;;;;;;;2.00;1.40;;;;;;;-148.88;62.28;-17125.47;5032977;28;20033;-74
2023/07/26 09:41:45;;;;;;;2.72;1.40;;;;;;;-148.88;61.94;-17125.47;5033232;28;20083;-74
2023/07/26 09:44:16;;;;;;;3.05;1.58;;;;;;;-148.88;62.92;-17125.47;5031676;28;20033;-74
2023/07/26 09:46:49;;;;;;;3.70;1.92;;;;;;;-148.88;60.38;-17125.47;5031900;28;20025;-73
2023/07/26 09:49:16;;;;;;;3.20;1.60;;;;;;;-148.88;61.89;-17125.47;5032982;28;20075;-74
2023/07/26 09:51:42;;;;;;;4.75;1.45;;;;;;;-148.88;61.88;-17125.47;5031670;28;20035;-74
2023/07/26 09:54:09;;;;;;;3.53;1.67;;;;;;;-148.88;59.28;-17125.47;5033866;28;20100;-74
2023/07/26 09:56:35;;;;;;;2.70;1.50;;;;;;;-148.88;60.43;-17125.47;5031633;28;20030;-74
2023/07/26 09:59:00;;;;;;;2.70;1.55;;;;;;;-148.88;58.34;-17125.47;5032941;28;20032;-73
2023/07/26 10:01:29;;;;;;;2.85;1.33;;;;;;;-148.88;59.54;-17125.47;5033108;28;20022;-74
2023/07/26 10:03:57;;;;;;;2.58;1.50;;;;;;;-148.88;58.62;-17125.47;5031548;28;20026;-75
2023/07/26 10:06:23;;;;;;;2.78;1.50;;;;;;;-148.88;59.78;-17125.47;5032723;28;20043;-74
2023/07/26 10:08:49;;;;;;;3.25;1.65;;;;;;;-148.88;56.83;-17125.47;5032925;28;20021;-74
2023/07/26 10:11:15;;;;;;;6.13;1.88;;;;;;;-148.88;56.59;-17125.47;5033046;28;20495;-74
2023/07/26 10:13:43;;;;;;;2.42;1.50;;;;;;;-148.88;58.78;-17125.47;5032952;28;20075;-74
2023/07/26 10:16:09;;;;;;;2.90;1.80;;;;;;;-148.88;58.17;-17125.47;5032586;28;20022;-74
2023/07/26 10:18:34;;;;;;;4.78;1.92;;;;;;;-148.88;57.61;-17125.47;5032607;28;20029;-74
2023/07/26 10:21:01;;;;;;;2.95;1.50;;;;;;;-148.88;56.62;-17125.47;5031354;28;20033;-74
2023/07/26 10:23:27;;;;;;;3.35;1.95;;;;;;;-148.88;55.37;-17125.47;5032701;28;20040;-74
2023/07/26 10:25:54;;;;;;;3.22;1.50;;;;;;;-148.88;58.86;-17125.47;5033734;28;20021;-74
2023/07/26 10:28:20;;;;;;;3.10;1.80;;;;;;;-148.88;60.28;-17125.47;5036957;28;20487;-74
2023/07/26 10:30:46;;;;;;;3.15;1.92;;;;;;;-148.88;61.67;-17125.47;5037415;28;20056;-74
2023/07/26 10:33:13;;;;;;;4.03;2.15;;;;;;;-148.88;60.46;-17125.47;5036490;28;20104;-74
2023/07/26 10:35:41;;;;;;;2.95;1.73;;;;;;;-148.88;59.85;-17125.47;5034980;28;20377;-74
2023/07/26 10:38:07;;;;;;;3.70;1.50;;;;;;;-148.88;60.07;-17125.47;5036294;28;20025;-74
2023/07/26 10:40:38;;;;;;;3.03;2.10;;;;;;;-148.88;60.59;-17125.47;5036036;28;20116;-74
2023/07/26 10:43:35;;;;;;;3.05;1.80;;;;;;;-148.88;62.13;-17125.47;5036073;28;20021;-74
2023/07/26 10:46:07;;;;;;;4.00;1.80;;;;;;;-148.88;62.47;-17125.47;5034648;28;20064;-74
2023/07/26 10:48:41;;;;;;;3.15;1.88;;;;;;;-148.88;63.55;-17125.47;5036011;28;20021;-74
2023/07/26 10:51:31;;;;;;;4.90;1.85;;;;;;;-148.88;62.85;-17125.47;5036007;28;20033;-74
2023/07/26 10:53:58;;;;;;;3.05;1.55;;;;;;;-148.88;61.54;-17125.47;5034599;28;20028;-74
2023/07/26 10:56:31;;;;;;;4.88;2.20;;;;;;;-148.88;61.63;-17125.47;5035739;28;20022;-74
2023/07/26 10:59:02;;;;;;;2.25;1.60;;;;;;;-148.88;59.17;-17125.47;5036130;28;20083;-74
2023/07/26 11:01:44;;;;;;;3.40;1.75;;;;;;;-148.88;58.98;-17125.47;5035838;28;20029;-74
2023/07/26 11:04:11;;;;;;;3.83;2.00;;;;;;;-148.88;56.20;-17125.47;5034589;28;20022;-74
2023/07/26 11:06:55;;;;;;;3.40;1.80;;;;;;;-148.88;55.19;-17125.47;5035831;28;20435;-73
2023/07/26 11:09:25;;;;;;;3.85;1.95;;;;;;;-148.88;58.87;-17125.47;5034368;28;20025;-74
2023/07/26 11:11:58;;;;;;;3.97;1.90;;;;;;;-148.88;55.87;-17125.47;5035866;28;20117;-74
2023/07/26 11:14:30;;;;;;;5.55;1.83;;;;;;;-148.88;54.23;-17125.47;5035780;28;20026;-74
2023/07/26 11:16:58;;;;;;;2.17;1.60;;;;;;;-148.88;51.89;-17125.47;5035827;28;20039;-74
2023/07/26 11:19:23;;;;;;;3.90;1.75;;;;;;;-148.88;53.15;-17125.47;5034213;28;20025;-74
2023/07/26 11:21:49;;;;;;;3.53;1.73;;;;;;;-148.88;54.66;-17125.47;5034193;28;20063;-74
2023/07/26 11:24:14;;;;;;;3.20;1.88;;;;;;;-148.88;55.09;-17125.47;5035393;28;20110;-74
2023/07/26 11:26:45;;;;;;;2.60;1.60;;;;;;;-148.88;55.82;-17125.47;5033972;28;20025;-74
2023/07/26 11:29:10;;;;;;;2.65;1.50;;;;;;;-148.88;56.51;-17125.47;5034138;28;20029;-74
2023/07/26 11:31:36;;;;;;;3.70;1.70;;;;;;;-148.88;56.27;-17125.47;5035551;28;20029;-74